createdAt,value
2023-05-23T00:01:55.287Z,100540.00
2023-05-23T00:04:22.234Z,100534.63
2023-05-23T00:06:50.660Z,100527.72
2023-05-23T00:09:17.587Z,100530.31
2023-05-23T00:11:45.499Z,100530.97
2023-05-23T00:14:13.638Z,100526.72
2023-05-23T00:16:45.049Z,100522.19
2023-05-23T00:19:14.821Z,100525.13
2023-05-23T00:21:43.749Z,100520.78
2023-05-23T00:24:10.587Z,100528.47
2023-05-23T00:26:37.255Z,100526.94
2023-05-23T00:29:03.915Z,100522.56
2023-05-23T00:31:30.635Z,100523.63
2023-05-23T00:33:57.516Z,100528.16
2023-05-23T00:36:24.227Z,100524.03
2023-05-23T00:38:50.874Z,100519.72
2023-05-23T00:41:18.592Z,100523.44
2023-05-23T00:43:45.453Z,100522.78
2023-05-23T00:46:12.207Z,100519.19
2023-05-23T00:48:39.005Z,100525.50
2023-05-23T00:51:05.848Z,100522.19
2023-05-23T00:53:33.780Z,100519.66
2023-05-23T00:56:00.587Z,100514.69
2023-05-23T00:58:27.594Z,100509.13
2023-05-23T01:00:55.723Z,100511.94
2023-05-23T01:03:23.981Z,100517.84
2023-05-23T01:05:51.580Z,100514.59
2023-05-23T01:08:18.264Z,100518.13
2023-05-23T01:10:44.921Z,100518.44
2023-05-23T01:13:29.985Z,100516.84
2023-05-23T01:16:09.412Z,100512.75
2023-05-23T01:18:51.063Z,100510.31
2023-05-23T01:21:18.457Z,100510.28
2023-05-23T01:24:21.778Z,100503.84
2023-05-23T01:27:20.487Z,100505.09
2023-05-23T01:29:48.561Z,100499.19
2023-05-23T01:32:16.387Z,100505.47
2023-05-23T01:34:43.803Z,100497.69
2023-05-23T01:37:11.677Z,100489.00
2023-05-23T01:39:38.532Z,100494.47
2023-05-23T01:42:05.803Z,100488.19
2023-05-23T01:44:34.321Z,100491.84
2023-05-23T01:47:05.357Z,100494.66
2023-05-23T01:49:32.656Z,100498.97
2023-05-23T01:52:00.968Z,100488.66
2023-05-23T01:54:29.448Z,100491.38
2023-05-23T01:56:59.607Z,100485.19
2023-05-23T01:59:26.439Z,100479.75
2023-05-23T02:01:53.056Z,100485.34
2023-05-23T02:04:19.772Z,100480.03
2023-05-23T02:06:47.453Z,100479.16
2023-05-23T02:09:14.330Z,100479.91
2023-05-23T02:11:40.986Z,100471.09
2023-05-23T02:14:11.229Z,100474.69
2023-05-23T02:16:38.113Z,100472.09
2023-05-23T02:19:04.879Z,100473.69
2023-05-23T02:21:34.227Z,100469.38
2023-05-23T02:24:01.832Z,100461.19
2023-05-23T02:26:28.486Z,100467.56
2023-05-23T02:28:55.119Z,100462.06
2023-05-23T02:31:22.236Z,100464.38
2023-05-23T02:33:48.973Z,100457.44
2023-05-23T02:36:15.658Z,100452.22
2023-05-23T02:38:42.295Z,100454.88
2023-05-23T02:41:08.942Z,100446.94
2023-05-23T02:43:35.796Z,100441.53
2023-05-23T02:46:02.511Z,100448.56
2023-05-23T02:48:29.209Z,100452.00
2023-05-23T02:50:56.032Z,100452.00
2023-05-23T02:53:22.741Z,100449.34
2023-05-23T02:55:49.430Z,100456.50
2023-05-23T02:58:16.424Z,100455.38
2023-05-23T03:00:44.087Z,100456.25
2023-05-23T03:03:11.442Z,100452.84
2023-05-23T03:05:38.328Z,100453.72
2023-05-23T03:08:05.606Z,100455.28
2023-05-23T03:10:32.375Z,100456.88
2023-05-23T03:12:59.173Z,100451.63
2023-05-23T03:15:25.944Z,100448.81
2023-05-23T03:17:52.793Z,100453.22
2023-05-23T03:20:19.750Z,100452.13
2023-05-23T03:22:46.544Z,100446.94
2023-05-23T03:25:16.286Z,100447.84
2023-05-23T03:27:43.064Z,100445.91
2023-05-23T03:30:10.889Z,100449.28
2023-05-23T03:32:37.807Z,100451.13
2023-05-23T03:35:04.850Z,100442.13
2023-05-23T03:37:31.639Z,100440.19
2023-05-23T03:39:58.417Z,100444.63
2023-05-23T03:42:25.231Z,100444.78
2023-05-23T03:44:52.058Z,100433.19
2023-05-23T03:47:18.829Z,100443.66
2023-05-23T03:49:46.054Z,100441.78
2023-05-23T03:52:12.827Z,100437.38
2023-05-23T03:54:39.645Z,100441.13
2023-05-23T03:57:07.094Z,100439.38
2023-05-23T03:59:34.202Z,100441.75
2023-05-23T04:02:01.465Z,100440.88
2023-05-23T04:04:29.736Z,100440.94
2023-05-23T04:06:56.742Z,100447.00
2023-05-23T04:09:23.556Z,100442.38
2023-05-23T04:11:50.470Z,100441.63
2023-05-23T04:14:17.661Z,100444.34
2023-05-23T04:16:44.967Z,100440.75
2023-05-23T04:19:12.545Z,100435.88
2023-05-23T04:21:39.332Z,100441.50
2023-05-23T04:24:06.452Z,100438.16
2023-05-23T04:26:33.112Z,100436.50
2023-05-23T04:29:00.273Z,100430.28
2023-05-23T04:31:27.095Z,100435.06
2023-05-23T04:33:53.852Z,100437.41
2023-05-23T04:36:20.609Z,100434.28
2023-05-23T04:38:47.300Z,100433.81
2023-05-23T04:41:16.388Z,100429.44
2023-05-23T04:43:43.133Z,100426.22
2023-05-23T04:46:10.206Z,100420.00
2023-05-23T04:48:38.589Z,100416.41
2023-05-23T04:51:08.554Z,100421.91
2023-05-23T04:53:36.961Z,100419.31
2023-05-23T04:56:03.747Z,100420.06
2023-05-23T04:58:31.860Z,100410.81
2023-05-23T05:00:58.858Z,100407.44
2023-05-23T05:03:26.418Z,100409.88
2023-05-23T05:05:53.754Z,100410.88
2023-05-23T05:08:20.589Z,100408.75
2023-05-23T05:10:47.510Z,100403.16
2023-05-23T05:13:14.165Z,100403.84
2023-05-23T05:15:40.936Z,100409.03
2023-05-23T05:18:07.643Z,100406.03
2023-05-23T05:20:34.401Z,100403.28
2023-05-23T05:23:01.323Z,100414.75
2023-05-23T05:25:31.863Z,100413.00
2023-05-23T05:28:06.025Z,100410.97
2023-05-23T05:30:36.150Z,100412.53
2023-05-23T05:33:04.582Z,100415.94
2023-05-23T05:35:35.077Z,100414.03
2023-05-23T05:38:04.740Z,100414.09
2023-05-23T05:40:34.968Z,100428.41
2023-05-23T05:43:01.669Z,100425.59
2023-05-23T05:45:28.346Z,100425.75
2023-05-23T05:47:55.092Z,100420.22
2023-05-23T05:50:21.881Z,100414.66
2023-05-23T05:52:48.561Z,100407.19
2023-05-23T05:55:15.221Z,100402.97
2023-05-23T05:57:42.043Z,100401.81
2023-05-23T06:00:15.354Z,100397.22
2023-05-23T06:02:47.548Z,100398.53
2023-05-23T06:05:16.407Z,100399.94
2023-05-23T06:07:44.019Z,100396.78
2023-05-23T06:10:13.997Z,100405.97
2023-05-23T06:12:40.792Z,100405.13
2023-05-23T06:15:08.133Z,100407.81
2023-05-23T06:17:34.802Z,100406.59
2023-05-23T06:20:01.537Z,100406.06
2023-05-23T06:22:28.289Z,100402.47
2023-05-23T06:24:54.967Z,100404.41
2023-05-23T06:27:21.632Z,100403.22
2023-05-23T06:29:48.295Z,100410.00
2023-05-23T06:32:14.962Z,100404.34
2023-05-23T06:34:41.687Z,100395.59
2023-05-23T06:37:08.357Z,100401.22
2023-05-23T06:39:35.298Z,100397.22
2023-05-23T06:42:02.482Z,100391.78
2023-05-23T06:44:29.125Z,100390.63
2023-05-23T06:46:57.688Z,100388.34
2023-05-23T06:49:24.997Z,100388.88
2023-05-23T06:51:52.175Z,100385.66
2023-05-23T06:54:19.666Z,100385.25
2023-05-23T06:56:46.365Z,100395.19
2023-05-23T06:59:13.060Z,100389.16
2023-05-23T07:01:40.050Z,100385.09
2023-05-23T07:04:06.873Z,100386.13
2023-05-23T07:06:35.797Z,100394.63
2023-05-23T07:09:02.461Z,100389.56
2023-05-23T07:11:29.145Z,100394.28
2023-05-23T07:13:55.939Z,100391.28
2023-05-23T07:16:22.618Z,100397.84
2023-05-23T07:18:49.312Z,100404.63
2023-05-23T07:21:16.076Z,100397.13
2023-05-23T07:23:42.723Z,100398.28
2023-05-23T07:26:09.901Z,100394.13
2023-05-23T07:28:37.606Z,100385.22
2023-05-23T07:31:04.948Z,100388.81
2023-05-23T07:33:34.481Z,100388.69
2023-05-23T07:36:01.484Z,100391.19
2023-05-23T07:38:28.173Z,100394.84
2023-05-23T07:41:06.816Z,100383.66
2023-05-23T07:43:37.934Z,100386.03
2023-05-23T07:46:04.647Z,100385.69
2023-05-23T07:48:32.155Z,100370.94
2023-05-23T07:50:58.906Z,100376.16
2023-05-23T07:53:26.368Z,100377.16
2023-05-23T07:55:53.247Z,100374.69
2023-05-23T07:58:20.208Z,100374.06
2023-05-23T08:00:46.920Z,100369.44
2023-05-23T08:03:13.729Z,100371.25
2023-05-23T08:05:40.519Z,100379.41
2023-05-23T08:08:07.227Z,100375.53
2023-05-23T08:10:33.964Z,100388.63
2023-05-23T08:13:01.057Z,100395.91
2023-05-23T08:15:28.828Z,100391.72
2023-05-23T08:17:57.319Z,100391.94
2023-05-23T08:20:30.752Z,100395.81
2023-05-23T08:23:01.845Z,100393.25
2023-05-23T08:25:32.093Z,100388.78
2023-05-23T08:27:59.429Z,100392.06
2023-05-23T08:30:26.443Z,100389.22
2023-05-23T08:32:53.899Z,100382.81
2023-05-23T08:35:21.087Z,100377.97
2023-05-23T08:37:48.116Z,100389.31
2023-05-23T08:40:19.594Z,100390.53
2023-05-23T08:42:50.079Z,100389.53
2023-05-23T08:45:17.354Z,100394.78
2023-05-23T08:47:45.013Z,100405.72
2023-05-23T08:50:20.181Z,100394.84
2023-05-23T08:52:56.053Z,100399.47
2023-05-23T08:55:28.121Z,100394.19
2023-05-23T08:57:56.029Z,100396.28
2023-05-23T09:00:23.404Z,100395.22
2023-05-23T09:02:50.159Z,100401.00
2023-05-23T09:05:17.325Z,100398.72
2023-05-23T09:07:47.885Z,100404.31
2023-05-23T09:10:17.176Z,100402.44
2023-05-23T09:12:43.873Z,100403.19
2023-05-23T09:15:11.411Z,100403.31
2023-05-23T09:17:38.562Z,100411.06
2023-05-23T09:20:17.046Z,100409.00
2023-05-23T09:22:49.199Z,100404.94
2023-05-23T09:25:16.340Z,100404.16
2023-05-23T09:27:45.121Z,100397.69
2023-05-23T09:30:14.627Z,100399.94
2023-05-23T09:32:42.384Z,100398.47
2023-05-23T09:35:13.870Z,100398.59
2023-05-23T09:37:49.127Z,100404.72
2023-05-23T09:40:16.382Z,100402.75
2023-05-23T09:42:48.552Z,100397.28
2023-05-23T09:45:17.165Z,100405.91
2023-05-23T09:47:54.113Z,100403.13
2023-05-23T09:50:21.327Z,100407.84
2023-05-23T09:52:48.260Z,100416.00
2023-05-23T09:55:15.253Z,100405.78
2023-05-23T09:57:42.954Z,100412.75
2023-05-23T10:00:13.964Z,100404.56
2023-05-23T10:03:14.072Z,100405.41
2023-05-23T10:05:51.931Z,100411.63
2023-05-23T10:08:22.340Z,100410.91
2023-05-23T10:10:58.273Z,100410.13
2023-05-23T10:13:27.120Z,100408.53
2023-05-23T10:16:17.268Z,100410.91
2023-05-23T10:18:44.859Z,100412.13
2023-05-23T10:21:19.412Z,100415.19
2023-05-23T10:23:47.580Z,100402.59
2023-05-23T10:26:14.342Z,100399.28
2023-05-23T10:28:41.945Z,100400.41
2023-05-23T10:31:08.617Z,100394.59
2023-05-23T10:33:40.643Z,100408.03
2023-05-23T10:36:14.866Z,100407.06
2023-05-23T10:38:48.372Z,100410.59
2023-05-23T10:41:26.284Z,100409.59
2023-05-23T10:44:10.446Z,100412.56
2023-05-23T10:47:04.353Z,100412.22
2023-05-23T10:49:44.763Z,100410.88
2023-05-23T10:52:13.749Z,100413.72
2023-05-23T10:54:47.578Z,100415.19
2023-05-23T10:57:22.558Z,100427.63
2023-05-23T10:59:52.349Z,100425.63
2023-05-23T11:02:20.344Z,100423.59
2023-05-23T11:04:48.659Z,100434.91
2023-05-23T11:07:33.715Z,100435.66
2023-05-23T11:10:05.141Z,100440.59
2023-05-23T11:12:42.701Z,100436.28
2023-05-23T11:15:18.577Z,100433.31
2023-05-23T11:17:56.146Z,100427.25
2023-05-23T11:20:28.977Z,100433.44
2023-05-23T11:23:01.214Z,100425.44
2023-05-23T11:26:01.055Z,100422.59
2023-05-23T11:28:28.671Z,100424.16
2023-05-23T11:30:57.507Z,100435.19
2023-05-23T11:33:24.175Z,100429.72
2023-05-23T11:35:51.877Z,100428.03
2023-05-23T11:38:18.933Z,100428.66
2023-05-23T11:40:48.862Z,100431.00
2023-05-23T11:43:17.010Z,100434.28
2023-05-23T11:45:43.994Z,100436.81
2023-05-23T11:48:15.042Z,100439.13
2023-05-23T11:50:49.353Z,100433.00
2023-05-23T11:53:19.119Z,100432.34
2023-05-23T11:55:50.683Z,100432.78
2023-05-23T11:58:17.463Z,100431.91
2023-05-23T12:00:45.317Z,100440.31
2023-05-23T12:03:12.593Z,100430.31
2023-05-23T12:05:39.406Z,100446.88
2023-05-23T12:08:06.101Z,100442.69
2023-05-23T12:10:32.820Z,100440.97
2023-05-23T12:12:59.924Z,100434.09
2023-05-23T12:15:28.201Z,100444.06
2023-05-23T12:17:56.313Z,100442.34
2023-05-23T12:20:24.264Z,100451.72
2023-05-23T12:22:50.897Z,100447.94
2023-05-23T12:25:17.639Z,100444.94
2023-05-23T12:27:44.392Z,100449.56
2023-05-23T12:30:12.259Z,100457.63
2023-05-23T12:32:43.056Z,100453.00
2023-05-23T12:35:12.207Z,100452.47
2023-05-23T12:37:40.517Z,100451.84
2023-05-23T12:40:17.564Z,100446.53
2023-05-23T12:42:54.227Z,100438.59
2023-05-23T12:45:22.722Z,100445.97
2023-05-23T12:47:51.413Z,100442.63
2023-05-23T12:50:19.739Z,100439.13
2023-05-23T12:52:46.442Z,100439.44
2023-05-23T12:55:13.497Z,100444.38
2023-05-23T12:57:40.169Z,100444.75
2023-05-23T13:00:08.256Z,100441.94
2023-05-23T13:02:35.081Z,100446.28
2023-05-23T13:05:01.849Z,100456.44
2023-05-23T13:07:29.344Z,100456.00
2023-05-23T13:09:56.304Z,100455.03
2023-05-23T13:12:23.109Z,100453.88
2023-05-23T13:14:50.283Z,100448.84
2023-05-23T13:17:17.267Z,100463.47
2023-05-23T13:19:44.130Z,100458.81
2023-05-23T13:22:11.128Z,100460.09
2023-05-23T13:24:38.454Z,100455.38
2023-05-23T13:27:06.795Z,100456.75
2023-05-23T13:29:34.172Z,100460.75
2023-05-23T13:32:01.437Z,100463.13
2023-05-23T13:34:28.721Z,100458.16
2023-05-23T13:36:55.658Z,100473.00
2023-05-23T13:39:22.880Z,100470.44
2023-05-23T13:41:52.552Z,100467.63
2023-05-23T13:44:19.558Z,100474.72
2023-05-23T13:46:46.331Z,100472.16
2023-05-23T13:49:13.046Z,100472.16
2023-05-23T13:51:40.005Z,100475.81
2023-05-23T13:54:06.713Z,100471.53
2023-05-23T13:56:33.765Z,100478.41
2023-05-23T13:59:00.969Z,100482.91
2023-05-23T14:01:27.775Z,100478.59
2023-05-23T14:03:54.544Z,100477.53
2023-05-23T14:06:21.308Z,100472.25
2023-05-23T14:08:48.028Z,100480.22
2023-05-23T14:11:14.693Z,100490.22
2023-05-23T14:13:41.342Z,100489.78
2023-05-23T14:16:09.054Z,100492.16
2023-05-23T14:18:35.707Z,100491.94
2023-05-23T14:21:02.362Z,100493.53
2023-05-23T14:23:29.039Z,100491.69
2023-05-23T14:25:55.681Z,100483.00
2023-05-23T14:28:22.490Z,100488.38
2023-05-23T14:30:49.208Z,100483.31
2023-05-23T14:33:15.982Z,100481.63
2023-05-23T14:35:43.297Z,100488.59
2023-05-23T14:38:10.331Z,100483.22
2023-05-23T14:40:37.011Z,100490.53
2023-05-23T14:43:03.658Z,100491.59
2023-05-23T14:45:30.341Z,100490.44
2023-05-23T14:47:57.103Z,100499.75
2023-05-23T14:50:23.835Z,100504.69
2023-05-23T14:52:50.702Z,100503.19
2023-05-23T14:55:17.407Z,100505.66
2023-05-23T14:57:44.151Z,100509.00
2023-05-23T15:00:11.913Z,100524.97
2023-05-23T15:02:38.825Z,100526.94
2023-05-23T15:05:05.846Z,100537.28
2023-05-23T15:07:38.769Z,100539.88
2023-05-23T15:10:06.690Z,100549.13
2023-05-23T15:12:33.606Z,100555.97
2023-05-23T15:15:04.000Z,100575.19
2023-05-23T15:17:32.570Z,100575.00
2023-05-23T15:19:59.711Z,100577.22
2023-05-23T15:24:56.066Z,100578.34
2023-05-23T15:27:23.822Z,100590.97
2023-05-23T15:29:50.640Z,100597.66
2023-05-23T15:32:17.747Z,100606.31
2023-05-23T15:34:44.509Z,100606.59
2023-05-23T15:37:11.499Z,100607.34
2023-05-23T15:39:38.311Z,100614.00
2023-05-23T15:42:05.798Z,100611.63
2023-05-23T15:44:33.606Z,100614.28
2023-05-23T15:47:00.595Z,100616.88
2023-05-23T15:49:27.652Z,100617.69
2023-05-23T15:51:55.431Z,100609.78
2023-05-23T15:54:23.184Z,100624.38
2023-05-23T15:56:50.469Z,100618.16
2023-05-23T15:59:17.364Z,100621.75
2023-05-23T16:01:45.989Z,100625.34
2023-05-23T16:04:12.849Z,100628.34
2023-05-23T16:06:40.405Z,100629.53
2023-05-23T16:09:08.906Z,100628.41
2023-05-23T16:11:35.890Z,100631.59
2023-05-23T16:14:02.707Z,100639.59
2023-05-23T16:16:29.458Z,100637.44
2023-05-23T16:18:56.262Z,100639.56
2023-05-23T16:21:23.380Z,100636.03
2023-05-23T16:23:52.231Z,100635.38
2023-05-23T16:26:19.726Z,100644.44
2023-05-23T16:28:47.098Z,100648.13
2023-05-23T16:31:17.172Z,100647.63
2023-05-23T16:33:44.616Z,100656.69
2023-05-23T16:36:11.510Z,100666.59
2023-05-23T16:38:38.203Z,100663.91
2023-05-23T16:41:04.950Z,100676.31
2023-05-23T16:43:34.684Z,100679.06
2023-05-23T16:46:01.426Z,100678.75
2023-05-23T16:48:28.306Z,100684.31
2023-05-23T16:50:55.265Z,100690.69
2023-05-23T16:53:23.180Z,100693.22
2023-05-23T16:55:50.296Z,100689.09
2023-05-23T16:58:19.249Z,100694.25
2023-05-23T17:00:47.736Z,100694.41
2023-05-23T17:03:14.615Z,100707.00
2023-05-23T17:05:42.334Z,100705.75
2023-05-23T17:08:09.686Z,100714.78
2023-05-23T17:10:37.687Z,100721.88
2023-05-23T17:13:04.613Z,100726.00
2023-05-23T17:15:31.621Z,100738.00
2023-05-23T17:17:58.487Z,100723.34
2023-05-23T17:20:27.186Z,100732.94
2023-05-23T17:22:54.083Z,100748.00
2023-05-23T17:25:20.884Z,100747.38
2023-05-23T17:27:47.591Z,100756.78
2023-05-23T17:30:18.214Z,100751.97
2023-05-23T17:32:46.321Z,100757.47
2023-05-23T17:35:13.031Z,100759.22
2023-05-23T17:37:43.314Z,100777.13
2023-05-23T17:40:11.577Z,100777.66
2023-05-23T17:42:42.120Z,100782.84
2023-05-23T17:45:09.869Z,100780.56
2023-05-23T17:47:36.903Z,100785.94
2023-05-23T17:50:04.565Z,100790.69
2023-05-23T17:52:31.362Z,100797.75
2023-05-23T17:54:58.567Z,100804.38
2023-05-23T17:57:25.595Z,100807.75
2023-05-23T17:59:52.283Z,100813.03
2023-05-23T18:02:19.358Z,100792.75
2023-05-23T18:04:48.904Z,100801.56
2023-05-23T18:07:18.705Z,100798.94
2023-05-23T18:09:46.458Z,100807.94
2023-05-23T18:12:13.600Z,100812.56
2023-05-23T18:14:40.554Z,100814.97
2023-05-23T18:17:08.520Z,100815.69
2023-05-23T18:19:35.805Z,100823.66
2023-05-23T18:22:02.495Z,100824.38
2023-05-23T18:24:29.146Z,100827.72
2023-05-23T18:26:56.474Z,100828.56
2023-05-23T18:29:23.230Z,100825.09
2023-05-23T18:31:49.905Z,100832.31
2023-05-23T18:34:16.593Z,100832.22
2023-05-23T18:36:43.355Z,100836.66
2023-05-23T18:39:09.990Z,100840.84
2023-05-23T18:41:36.661Z,100842.72
2023-05-23T18:44:05.102Z,100839.66
2023-05-23T18:46:31.828Z,100841.84
2023-05-23T18:48:58.528Z,100845.47
2023-05-23T18:51:26.223Z,100847.06
2023-05-23T18:53:52.967Z,100839.13
2023-05-23T18:56:20.737Z,100853.81
2023-05-23T18:58:49.436Z,100849.28
2023-05-23T19:01:16.681Z,100857.09
2023-05-23T19:03:45.258Z,100868.47
2023-05-23T19:06:12.512Z,100860.06
2023-05-23T19:08:39.218Z,100861.81
2023-05-23T19:11:06.065Z,100864.69
2023-05-23T19:13:32.809Z,100872.59
2023-05-23T19:15:59.629Z,100876.28
2023-05-23T19:18:26.380Z,100877.97
2023-05-23T19:20:54.179Z,100882.91
2023-05-23T19:23:21.408Z,100874.38
2023-05-23T19:25:48.226Z,100880.47
2023-05-23T19:28:17.755Z,100883.22
2023-05-23T19:30:44.616Z,100878.97
2023-05-23T19:33:11.621Z,100883.25
2023-05-23T19:35:38.517Z,100884.84
2023-05-23T19:38:05.335Z,100884.13
2023-05-23T19:40:32.010Z,100885.34
2023-05-23T19:42:58.703Z,100895.84
2023-05-23T19:45:25.568Z,100888.03
2023-05-23T19:47:52.724Z,100895.59
2023-05-23T19:50:21.842Z,100894.44
2023-05-23T19:52:48.943Z,100893.91
2023-05-23T19:55:15.994Z,100901.13
2023-05-23T19:57:42.665Z,100907.03
2023-05-23T20:00:10.680Z,100909.16
2023-05-23T20:02:37.546Z,100911.41
2023-05-23T20:05:04.700Z,100909.97
2023-05-23T20:07:31.594Z,100918.72
2023-05-23T20:09:58.302Z,100921.28
2023-05-23T20:12:25.200Z,100919.78
2023-05-23T20:14:51.932Z,100927.75
2023-05-23T20:17:18.789Z,100938.31
2023-05-23T20:19:45.475Z,100936.44
2023-05-23T20:22:12.128Z,100943.59
2023-05-23T20:24:38.836Z,100950.19
2023-05-23T20:27:07.222Z,100944.69
2023-05-23T20:29:34.998Z,100949.09
2023-05-23T20:32:02.285Z,100952.88
2023-05-23T20:34:29.093Z,100954.34
2023-05-23T20:36:55.870Z,100952.44
2023-05-23T20:39:24.060Z,100949.28
2023-05-23T20:41:50.783Z,100952.09
2023-05-23T20:44:18.277Z,100951.53
2023-05-23T20:46:45.064Z,100957.53
2023-05-23T20:49:11.790Z,100956.47
2023-05-23T20:51:38.693Z,100958.13
2023-05-23T20:54:06.089Z,100967.81
2023-05-23T20:56:33.050Z,100962.69
2023-05-23T20:59:00.400Z,100964.66
2023-05-23T21:01:27.615Z,100961.13
2023-05-23T21:03:55.177Z,100965.00
2023-05-23T21:06:22.455Z,100964.78
2023-05-23T21:08:49.198Z,100965.66
2023-05-23T21:11:15.948Z,100973.72
2023-05-23T21:13:42.959Z,100971.66
2023-05-23T21:16:12.520Z,100974.13
2023-05-23T21:18:39.263Z,100968.91
2023-05-23T21:21:06.007Z,100972.44
2023-05-23T21:23:32.693Z,100977.94
2023-05-23T21:25:59.350Z,100978.91
2023-05-23T21:28:26.080Z,100983.25
2023-05-23T21:30:56.225Z,100974.59
2023-05-23T21:33:23.068Z,100971.97
2023-05-23T21:35:49.754Z,100979.91
2023-05-23T21:38:16.414Z,100979.91
2023-05-23T21:40:43.342Z,100977.97
2023-05-23T21:43:10.244Z,100980.78
2023-05-23T21:45:36.920Z,100984.41
2023-05-23T21:48:03.671Z,100985.91
2023-05-23T21:50:30.339Z,100989.34
2023-05-23T21:52:57.048Z,100987.72
2023-05-23T21:55:23.922Z,100992.13
2023-05-23T21:57:50.575Z,100996.59
2023-05-23T22:00:19.101Z,100999.16
2023-05-23T22:02:46.147Z,101000.09
2023-05-23T22:05:13.277Z,101003.94
2023-05-23T22:07:40.034Z,101011.94
2023-05-23T22:10:07.373Z,101013.00
2023-05-23T22:12:34.043Z,101009.41
2023-05-23T22:15:01.050Z,101011.09
2023-05-23T22:17:27.709Z,101010.22
2023-05-23T22:19:55.850Z,101012.16
2023-05-23T22:22:22.665Z,101010.50
2023-05-23T22:24:49.373Z,101006.88
2023-05-23T22:27:16.111Z,101023.78
2023-05-23T22:29:42.859Z,101020.19
2023-05-23T22:32:09.766Z,101014.78
2023-05-23T22:34:36.538Z,101009.53
2023-05-23T22:37:03.300Z,101014.94
2023-05-23T22:39:30.198Z,101008.84
2023-05-23T22:41:56.874Z,101013.09
2023-05-23T22:44:23.546Z,101010.47
2023-05-23T22:46:52.198Z,101005.88
2023-05-23T22:49:21.852Z,101019.16
2023-05-23T22:51:48.698Z,101014.63
2023-05-23T22:54:15.434Z,101013.75
2023-05-23T22:56:42.122Z,101009.38
2023-05-23T22:59:08.854Z,101011.25
2023-05-23T23:01:35.697Z,101008.63
2023-05-23T23:04:02.492Z,101012.19
2023-05-23T23:06:29.394Z,101014.00
2023-05-23T23:08:56.081Z,101011.28
2023-05-23T23:11:22.759Z,101012.72
2023-05-23T23:13:49.425Z,101008.38
2023-05-23T23:16:19.301Z,101018.38
2023-05-23T23:18:47.192Z,101016.28
2023-05-23T23:21:13.959Z,101006.50
2023-05-23T23:23:40.986Z,101018.09
2023-05-23T23:26:07.718Z,101023.28
2023-05-23T23:28:34.395Z,101017.03
2023-05-23T23:31:01.259Z,101021.50
2023-05-23T23:33:28.001Z,101019.75
2023-05-23T23:35:54.750Z,101016.38
2023-05-23T23:38:21.398Z,101014.50
2023-05-23T23:40:48.065Z,101017.31
2023-05-23T23:43:14.771Z,101017.31
2023-05-23T23:45:41.490Z,101021.56
2023-05-23T23:48:08.259Z,101014.53
2023-05-23T23:50:35.041Z,101023.53
2023-05-23T23:53:01.708Z,101018.03
2023-05-23T23:55:28.387Z,101019.13
2023-05-23T23:57:55.206Z,101021.78
